sensor_id;sensor_type;location;lat;lon;timestamp;temperature;humidity
29295;DHT22;16305;48.566;8.846;2022-07-22T00:02:16;18.20;99.90
29295;DHT22;16305;48.566;8.846;2022-07-22T00:04:42;17.90;99.90
29295;DHT22;16305;48.566;8.846;2022-07-22T00:07:07;17.80;99.90
29295;DHT22;16305;48.566;8.846;2022-07-22T00:09:33;17.80;99.90
29295;DHT22;16305;48.566;8.846;2022-07-22T00:11:59;17.80;99.90
29295;DHT22;16305;48.566;8.846;2022-07-22T00:14:24;17.80;99.90
29295;DHT22;16305;48.566;8.846;2022-07-22T00:16:50;17.90;99.90
29295;DHT22;16305;48.566;8.846;2022-07-22T00:19:16;18.00;99.90
29295;DHT22;16305;48.566;8.846;2022-07-22T00:21:41;18.00;99.90
29295;DHT22;16305;48.566;8.846;2022-07-22T00:24:07;18.10;99.90
29295;DHT22;16305;48.566;8.846;2022-07-22T00:26:32;18.20;99.90
29295;DHT22;16305;48.566;8.846;2022-07-22T00:28:58;18.20;99.90
29295;DHT22;16305;48.566;8.846;2022-07-22T00:31:24;18.30;99.90
29295;DHT22;16305;48.566;8.846;2022-07-22T00:33:49;18.30;99.90
29295;DHT22;16305;48.566;8.846;2022-07-22T00:36:15;18.30;99.90
29295;DHT22;16305;48.566;8.846;2022-07-22T00:38:41;18.40;99.90
29295;DHT22;16305;48.566;8.846;2022-07-22T00:41:06;18.10;99.90
29295;DHT22;16305;48.566;8.846;2022-07-22T00:43:59;18.00;99.90
29295;DHT22;16305;48.566;8.846;2022-07-22T00:46:25;17.90;99.90
29295;DHT22;16305;48.566;8.846;2022-07-22T00:48:51;18.00;99.90
29295;DHT22;16305;48.566;8.846;2022-07-22T00:51:18;18.00;99.90
29295;DHT22;16305;48.566;8.846;2022-07-22T00:53:45;18.00;99.90
29295;DHT22;16305;48.566;8.846;2022-07-22T00:56:10;18.20;99.90
29295;DHT22;16305;48.566;8.846;2022-07-22T00:58:36;18.00;99.90
29295;DHT22;16305;48.566;8.846;2022-07-22T01:01:02;17.70;99.90
29295;DHT22;16305;48.566;8.846;2022-07-22T01:03:27;17.60;99.90
29295;DHT22;16305;48.566;8.846;2022-07-22T01:05:53;17.60;99.90
29295;DHT22;16305;48.566;8.846;2022-07-22T01:08:19;17.70;99.90
29295;DHT22;16305;48.566;8.846;2022-07-22T01:10:44;17.70;99.90
29295;DHT22;16305;48.566;8.846;2022-07-22T01:13:10;17.80;99.90
29295;DHT22;16305;48.566;8.846;2022-07-22T01:15:35;18.00;99.90
29295;DHT22;16305;48.566;8.846;2022-07-22T01:18:01;18.00;99.90
29295;DHT22;16305;48.566;8.846;2022-07-22T01:20:26;18.10;99.90
29295;DHT22;16305;48.566;8.846;2022-07-22T01:22:52;18.10;99.90
29295;DHT22;16305;48.566;8.846;2022-07-22T01:25:18;18.20;99.90
29295;DHT22;16305;48.566;8.846;2022-07-22T01:27:43;18.30;99.90
29295;DHT22;16305;48.566;8.846;2022-07-22T01:30:10;18.30;99.90
29295;DHT22;16305;48.566;8.846;2022-07-22T01:32:35;18.40;99.90
29295;DHT22;16305;48.566;8.846;2022-07-22T01:35:01;18.40;99.90
29295;DHT22;16305;48.566;8.846;2022-07-22T01:37:27;18.30;99.90
29295;DHT22;16305;48.566;8.846;2022-07-22T01:39:52;18.20;99.90
29295;DHT22;16305;48.566;8.846;2022-07-22T01:42:18;18.20;99.90
29295;DHT22;16305;48.566;8.846;2022-07-22T01:44:43;18.20;99.90
29295;DHT22;16305;48.566;8.846;2022-07-22T01:47:09;18.20;99.90
29295;DHT22;16305;48.566;8.846;2022-07-22T01:49:36;18.10;99.90
29295;DHT22;16305;48.566;8.846;2022-07-22T01:52:03;18.10;99.90
29295;DHT22;16305;48.566;8.846;2022-07-22T01:54:29;18.10;99.90
29295;DHT22;16305;48.566;8.846;2022-07-22T01:56:54;18.10;99.90
29295;DHT22;16305;48.566;8.846;2022-07-22T01:59:20;18.10;99.90
29295;DHT22;16305;48.566;8.846;2022-07-22T02:01:45;18.10;99.90
29295;DHT22;16305;48.566;8.846;2022-07-22T02:04:11;18.00;99.90
29295;DHT22;16305;48.566;8.846;2022-07-22T02:06:37;17.90;99.90
29295;DHT22;16305;48.566;8.846;2022-07-22T02:09:03;18.00;99.90
29295;DHT22;16305;48.566;8.846;2022-07-22T02:11:28;18.00;99.90
29295;DHT22;16305;48.566;8.846;2022-07-22T02:13:54;18.00;99.90
29295;DHT22;16305;48.566;8.846;2022-07-22T02:16:20;17.90;99.90
29295;DHT22;16305;48.566;8.846;2022-07-22T02:18:45;17.80;99.90
29295;DHT22;16305;48.566;8.846;2022-07-22T02:21:11;17.80;99.90
29295;DHT22;16305;48.566;8.846;2022-07-22T02:23:36;17.70;99.90
29295;DHT22;16305;48.566;8.846;2022-07-22T02:26:02;17.70;99.90
29295;DHT22;16305;48.566;8.846;2022-07-22T02:28:28;17.60;99.90
29295;DHT22;16305;48.566;8.846;2022-07-22T02:30:53;17.60;99.90
29295;DHT22;16305;48.566;8.846;2022-07-22T02:33:19;17.60;99.90
29295;DHT22;16305;48.566;8.846;2022-07-22T02:35:45;17.50;99.90
29295;DHT22;16305;48.566;8.846;2022-07-22T02:38:10;17.40;99.90
29295;DHT22;16305;48.566;8.846;2022-07-22T02:40:36;17.50;99.90
29295;DHT22;16305;48.566;8.846;2022-07-22T02:43:02;17.40;99.90
29295;DHT22;16305;48.566;8.846;2022-07-22T02:45:28;17.20;99.90
29295;DHT22;16305;48.566;8.846;2022-07-22T02:47:55;17.10;99.90
29295;DHT22;16305;48.566;8.846;2022-07-22T02:50:21;17.10;99.90
29295;DHT22;16305;48.566;8.846;2022-07-22T02:52:47;17.20;99.90
29295;DHT22;16305;48.566;8.846;2022-07-22T02:55:13;17.40;99.90
29295;DHT22;16305;48.566;8.846;2022-07-22T02:57:39;17.60;99.90
29295;DHT22;16305;48.566;8.846;2022-07-22T03:00:06;17.60;99.90
29295;DHT22;16305;48.566;8.846;2022-07-22T03:02:33;17.70;99.90
29295;DHT22;16305;48.566;8.846;2022-07-22T03:04:59;17.50;99.90
29295;DHT22;16305;48.566;8.846;2022-07-22T03:07:24;17.40;99.90
29295;DHT22;16305;48.566;8.846;2022-07-22T03:09:50;17.30;99.90
29295;DHT22;16305;48.566;8.846;2022-07-22T03:12:15;17.30;99.90
29295;DHT22;16305;48.566;8.846;2022-07-22T03:14:41;17.30;99.90
29295;DHT22;16305;48.566;8.846;2022-07-22T03:17:06;17.20;99.90
29295;DHT22;16305;48.566;8.846;2022-07-22T03:19:32;17.20;99.90
29295;DHT22;16305;48.566;8.846;2022-07-22T03:21:57;17.20;99.90
29295;DHT22;16305;48.566;8.846;2022-07-22T03:24:23;17.10;99.90
29295;DHT22;16305;48.566;8.846;2022-07-22T03:26:48;17.10;99.90
29295;DHT22;16305;48.566;8.846;2022-07-22T03:29:14;17.00;99.90
29295;DHT22;16305;48.566;8.846;2022-07-22T03:31:39;17.10;99.90
29295;DHT22;16305;48.566;8.846;2022-07-22T03:34:05;17.00;99.90
29295;DHT22;16305;48.566;8.846;2022-07-22T03:36:31;16.90;99.90
29295;DHT22;16305;48.566;8.846;2022-07-22T03:38:56;16.90;99.90
29295;DHT22;16305;48.566;8.846;2022-07-22T03:41:22;16.90;99.90
29295;DHT22;16305;48.566;8.846;2022-07-22T03:43:48;17.00;99.90
29295;DHT22;16305;48.566;8.846;2022-07-22T03:46:13;17.00;99.90
29295;DHT22;16305;48.566;8.846;2022-07-22T03:48:39;16.80;99.90
29295;DHT22;16305;48.566;8.846;2022-07-22T03:51:05;16.70;99.90
29295;DHT22;16305;48.566;8.846;2022-07-22T03:53:31;16.60;99.90
29295;DHT22;16305;48.566;8.846;2022-07-22T03:55:58;16.60;99.90
29295;DHT22;16305;48.566;8.846;2022-07-22T03:58:24;16.70;99.90
29295;DHT22;16305;48.566;8.846;2022-07-22T04:00:49;16.70;99.90
29295;DHT22;16305;48.566;8.846;2022-07-22T04:03:15;16.70;99.90
29295;DHT22;16305;48.566;8.846;2022-07-22T04:05:41;16.70;99.90
29295;DHT22;16305;48.566;8.846;2022-07-22T04:08:06;16.70;99.90
29295;DHT22;16305;48.566;8.846;2022-07-22T04:10:32;16.80;99.90
29295;DHT22;16305;48.566;8.846;2022-07-22T04:12:57;17.00;99.90
29295;DHT22;16305;48.566;8.846;2022-07-22T04:15:23;16.90;99.90
29295;DHT22;16305;48.566;8.846;2022-07-22T04:17:48;16.60;99.90
29295;DHT22;16305;48.566;8.846;2022-07-22T04:20:14;16.30;99.90
29295;DHT22;16305;48.566;8.846;2022-07-22T04:22:39;16.20;99.90
29295;DHT22;16305;48.566;8.846;2022-07-22T04:25:05;16.20;99.90
29295;DHT22;16305;48.566;8.846;2022-07-22T04:27:31;16.20;99.90
29295;DHT22;16305;48.566;8.846;2022-07-22T04:29:56;16.20;99.90
29295;DHT22;16305;48.566;8.846;2022-07-22T04:32:22;16.10;99.90
29295;DHT22;16305;48.566;8.846;2022-07-22T04:34:47;16.10;99.90
29295;DHT22;16305;48.566;8.846;2022-07-22T04:37:13;16.20;99.90
29295;DHT22;16305;48.566;8.846;2022-07-22T04:39:39;16.30;99.90
29295;DHT22;16305;48.566;8.846;2022-07-22T04:42:04;16.30;99.90
29295;DHT22;16305;48.566;8.846;2022-07-22T04:44:30;16.30;99.90
29295;DHT22;16305;48.566;8.846;2022-07-22T04:46:55;16.50;99.90
29295;DHT22;16305;48.566;8.846;2022-07-22T04:49:21;16.60;99.90
29295;DHT22;16305;48.566;8.846;2022-07-22T04:51:47;16.70;99.90
29295;DHT22;16305;48.566;8.846;2022-07-22T04:54:12;16.70;99.90
29295;DHT22;16305;48.566;8.846;2022-07-22T04:56:38;16.90;99.90
29295;DHT22;16305;48.566;8.846;2022-07-22T04:59:03;17.00;99.90
29295;DHT22;16305;48.566;8.846;2022-07-22T05:01:29;17.00;99.90
29295;DHT22;16305;48.566;8.846;2022-07-22T05:03:54;17.00;99.90
29295;DHT22;16305;48.566;8.846;2022-07-22T05:06:20;17.00;99.90
29295;DHT22;16305;48.566;8.846;2022-07-22T05:08:45;17.10;99.90
29295;DHT22;16305;48.566;8.846;2022-07-22T05:11:11;17.10;99.90
29295;DHT22;16305;48.566;8.846;2022-07-22T05:13:37;17.20;99.90
29295;DHT22;16305;48.566;8.846;2022-07-22T05:16:06;17.40;99.90
29295;DHT22;16305;48.566;8.846;2022-07-22T05:18:32;17.50;99.90
29295;DHT22;16305;48.566;8.846;2022-07-22T05:20:58;17.50;99.90
29295;DHT22;16305;48.566;8.846;2022-07-22T05:23:23;17.70;99.90
29295;DHT22;16305;48.566;8.846;2022-07-22T05:25:49;17.70;99.90
29295;DHT22;16305;48.566;8.846;2022-07-22T05:28:14;17.70;99.90
29295;DHT22;16305;48.566;8.846;2022-07-22T05:30:40;17.80;99.90
29295;DHT22;16305;48.566;8.846;2022-07-22T05:33:05;17.90;99.90
29295;DHT22;16305;48.566;8.846;2022-07-22T05:35:31;18.00;99.90
29295;DHT22;16305;48.566;8.846;2022-07-22T05:37:56;18.10;99.90
29295;DHT22;16305;48.566;8.846;2022-07-22T05:40:22;18.30;99.90
29295;DHT22;16305;48.566;8.846;2022-07-22T05:42:48;18.30;99.90
29295;DHT22;16305;48.566;8.846;2022-07-22T05:45:13;18.10;99.90
29295;DHT22;16305;48.566;8.846;2022-07-22T05:47:39;18.10;99.90
29295;DHT22;16305;48.566;8.846;2022-07-22T05:50:05;18.20;99.90
29295;DHT22;16305;48.566;8.846;2022-07-22T05:52:30;18.20;99.90
29295;DHT22;16305;48.566;8.846;2022-07-22T05:54:59;18.30;99.90
29295;DHT22;16305;48.566;8.846;2022-07-22T05:57:25;18.40;99.90
29295;DHT22;16305;48.566;8.846;2022-07-22T05:59:50;18.50;99.90
29295;DHT22;16305;48.566;8.846;2022-07-22T06:02:16;18.60;99.90
29295;DHT22;16305;48.566;8.846;2022-07-22T06:04:41;18.60;99.90
29295;DHT22;16305;48.566;8.846;2022-07-22T06:07:07;18.70;99.90
29295;DHT22;16305;48.566;8.846;2022-07-22T06:09:32;18.80;99.90
29295;DHT22;16305;48.566;8.846;2022-07-22T06:11:58;18.70;99.90
29295;DHT22;16305;48.566;8.846;2022-07-22T06:14:23;18.80;99.90
29295;DHT22;16305;48.566;8.846;2022-07-22T06:16:49;18.70;99.90
29295;DHT22;16305;48.566;8.846;2022-07-22T06:19:14;18.70;99.90
29295;DHT22;16305;48.566;8.846;2022-07-22T06:21:40;18.80;99.90
29295;DHT22;16305;48.566;8.846;2022-07-22T06:24:06;18.90;99.90
29295;DHT22;16305;48.566;8.846;2022-07-22T06:26:32;19.00;99.90
29295;DHT22;16305;48.566;8.846;2022-07-22T06:28:57;19.00;99.90
29295;DHT22;16305;48.566;8.846;2022-07-22T06:31:23;19.10;99.90
29295;DHT22;16305;48.566;8.846;2022-07-22T06:33:48;19.20;99.90
29295;DHT22;16305;48.566;8.846;2022-07-22T06:36:14;19.30;99.90
29295;DHT22;16305;48.566;8.846;2022-07-22T06:38:40;19.50;99.90
29295;DHT22;16305;48.566;8.846;2022-07-22T06:41:06;19.60;99.90
29295;DHT22;16305;48.566;8.846;2022-07-22T06:43:31;19.60;99.90
29295;DHT22;16305;48.566;8.846;2022-07-22T06:45:57;19.60;99.90
29295;DHT22;16305;48.566;8.846;2022-07-22T06:48:22;19.70;99.90
29295;DHT22;16305;48.566;8.846;2022-07-22T06:50:48;19.80;99.90
29295;DHT22;16305;48.566;8.846;2022-07-22T06:53:14;19.90;99.90
29295;DHT22;16305;48.566;8.846;2022-07-22T06:55:39;20.10;99.90
29295;DHT22;16305;48.566;8.846;2022-07-22T06:58:05;20.10;99.90
29295;DHT22;16305;48.566;8.846;2022-07-22T07:00:31;20.10;99.90
29295;DHT22;16305;48.566;8.846;2022-07-22T07:03:00;20.10;99.90
29295;DHT22;16305;48.566;8.846;2022-07-22T07:05:26;20.30;99.90
29295;DHT22;16305;48.566;8.846;2022-07-22T07:07:53;20.40;99.90
29295;DHT22;16305;48.566;8.846;2022-07-22T07:10:18;20.40;99.90
29295;DHT22;16305;48.566;8.846;2022-07-22T07:12:44;20.60;99.90
29295;DHT22;16305;48.566;8.846;2022-07-22T07:15:10;20.60;99.90
29295;DHT22;16305;48.566;8.846;2022-07-22T07:17:36;20.70;99.90
29295;DHT22;16305;48.566;8.846;2022-07-22T07:20:02;20.80;99.90
29295;DHT22;16305;48.566;8.846;2022-07-22T07:22:28;20.90;99.90
29295;DHT22;16305;48.566;8.846;2022-07-22T07:24:53;21.00;99.90
29295;DHT22;16305;48.566;8.846;2022-07-22T07:27:19;21.10;99.90
29295;DHT22;16305;48.566;8.846;2022-07-22T07:29:44;21.20;99.90
29295;DHT22;16305;48.566;8.846;2022-07-22T07:32:11;21.40;99.90
29295;DHT22;16305;48.566;8.846;2022-07-22T07:34:36;21.50;99.90
29295;DHT22;16305;48.566;8.846;2022-07-22T07:37:02;21.50;99.90
29295;DHT22;16305;48.566;8.846;2022-07-22T07:39:27;21.60;99.90
29295;DHT22;16305;48.566;8.846;2022-07-22T07:41:53;21.60;99.90
29295;DHT22;16305;48.566;8.846;2022-07-22T07:44:19;21.60;99.90
29295;DHT22;16305;48.566;8.846;2022-07-22T07:46:44;21.70;99.90
29295;DHT22;16305;48.566;8.846;2022-07-22T07:49:10;21.80;99.90
29295;DHT22;16305;48.566;8.846;2022-07-22T07:51:35;22.00;99.90
29295;DHT22;16305;48.566;8.846;2022-07-22T07:54:02;22.20;99.90
29295;DHT22;16305;48.566;8.846;2022-07-22T07:56:27;22.10;99.90
29295;DHT22;16305;48.566;8.846;2022-07-22T07:58:53;22.10;99.90
29295;DHT22;16305;48.566;8.846;2022-07-22T08:01:19;22.20;99.90
29295;DHT22;16305;48.566;8.846;2022-07-22T08:03:44;22.20;99.90
29295;DHT22;16305;48.566;8.846;2022-07-22T08:06:10;22.00;99.90
29295;DHT22;16305;48.566;8.846;2022-07-22T08:08:35;22.20;99.90
29295;DHT22;16305;48.566;8.846;2022-07-22T08:11:01;22.30;99.90
29295;DHT22;16305;48.566;8.846;2022-07-22T08:13:27;22.40;99.90
29295;DHT22;16305;48.566;8.846;2022-07-22T08:15:52;22.40;99.90
29295;DHT22;16305;48.566;8.846;2022-07-22T08:18:18;22.60;99.90
29295;DHT22;16305;48.566;8.846;2022-07-22T08:20:44;22.60;99.90
29295;DHT22;16305;48.566;8.846;2022-07-22T08:23:09;22.70;99.90
29295;DHT22;16305;48.566;8.846;2022-07-22T08:25:35;22.70;99.90
29295;DHT22;16305;48.566;8.846;2022-07-22T08:28:00;22.80;99.90
29295;DHT22;16305;48.566;8.846;2022-07-22T08:30:26;23.00;99.90
29295;DHT22;16305;48.566;8.846;2022-07-22T08:32:54;23.10;99.90
29295;DHT22;16305;48.566;8.846;2022-07-22T08:35:20;23.30;99.90
29295;DHT22;16305;48.566;8.846;2022-07-22T08:37:47;23.30;99.90
29295;DHT22;16305;48.566;8.846;2022-07-22T08:40:14;23.30;99.90
29295;DHT22;16305;48.566;8.846;2022-07-22T08:42:41;23.30;99.90
29295;DHT22;16305;48.566;8.846;2022-07-22T08:45:08;23.40;99.90
29295;DHT22;16305;48.566;8.846;2022-07-22T08:47:34;23.50;99.90
29295;DHT22;16305;48.566;8.846;2022-07-22T08:50:00;23.60;99.90
29295;DHT22;16305;48.566;8.846;2022-07-22T08:52:25;23.70;99.90
29295;DHT22;16305;48.566;8.846;2022-07-22T08:54:51;23.80;99.90
29295;DHT22;16305;48.566;8.846;2022-07-22T08:57:17;23.90;99.90
29295;DHT22;16305;48.566;8.846;2022-07-22T08:59:54;23.90;99.90
29295;DHT22;16305;48.566;8.846;2022-07-22T09:02:21;23.90;99.90
29295;DHT22;16305;48.566;8.846;2022-07-22T09:04:52;24.00;99.90
29295;DHT22;16305;48.566;8.846;2022-07-22T09:07:30;24.10;99.90
29295;DHT22;16305;48.566;8.846;2022-07-22T09:09:59;24.20;99.90
29295;DHT22;16305;48.566;8.846;2022-07-22T09:12:25;24.20;99.90
29295;DHT22;16305;48.566;8.846;2022-07-22T09:14:55;24.50;99.90
29295;DHT22;16305;48.566;8.846;2022-07-22T09:17:33;24.70;99.90
29295;DHT22;16305;48.566;8.846;2022-07-22T09:20:16;24.60;99.90
29295;DHT22;16305;48.566;8.846;2022-07-22T09:22:47;24.80;99.90
29295;DHT22;16305;48.566;8.846;2022-07-22T09:27:43;25.10;99.90
29295;DHT22;16305;48.566;8.846;2022-07-22T09:30:15;25.10;99.90
29295;DHT22;16305;48.566;8.846;2022-07-22T09:32:42;25.10;99.90
29295;DHT22;16305;48.566;8.846;2022-07-22T09:35:08;25.20;99.90
29295;DHT22;16305;48.566;8.846;2022-07-22T09:37:34;25.20;99.90
29295;DHT22;16305;48.566;8.846;2022-07-22T09:40:32;25.30;99.90
29295;DHT22;16305;48.566;8.846;2022-07-22T09:43:02;25.60;99.90
29295;DHT22;16305;48.566;8.846;2022-07-22T09:45:30;25.60;99.90
29295;DHT22;16305;48.566;8.846;2022-07-22T09:47:57;25.70;99.90
29295;DHT22;16305;48.566;8.846;2022-07-22T09:50:28;25.90;99.90
29295;DHT22;16305;48.566;8.846;2022-07-22T09:52:55;26.00;99.90
29295;DHT22;16305;48.566;8.846;2022-07-22T09:55:24;26.10;99.90
29295;DHT22;16305;48.566;8.846;2022-07-22T09:57:51;26.00;99.90
29295;DHT22;16305;48.566;8.846;2022-07-22T10:00:21;26.00;99.90
29295;DHT22;16305;48.566;8.846;2022-07-22T10:05:31;26.40;99.90
29295;DHT22;16305;48.566;8.846;2022-07-22T10:07:57;26.50;99.90
29295;DHT22;16305;48.566;8.846;2022-07-22T10:10:27;26.60;99.90
29295;DHT22;16305;48.566;8.846;2022-07-22T10:12:55;26.30;99.90
29295;DHT22;16305;48.566;8.846;2022-07-22T10:15:22;26.30;99.90
29295;DHT22;16305;48.566;8.846;2022-07-22T10:17:50;26.50;99.90
29295;DHT22;16305;48.566;8.846;2022-07-22T10:20:17;26.70;99.90
29295;DHT22;16305;48.566;8.846;2022-07-22T10:22:55;26.80;99.90
29295;DHT22;16305;48.566;8.846;2022-07-22T10:25:23;26.80;99.90
29295;DHT22;16305;48.566;8.846;2022-07-22T10:28:01;26.90;99.90
29295;DHT22;16305;48.566;8.846;2022-07-22T10:30:33;27.10;99.90
29295;DHT22;16305;48.566;8.846;2022-07-22T10:35:30;27.20;99.90
29295;DHT22;16305;48.566;8.846;2022-07-22T10:37:59;27.30;99.90
29295;DHT22;16305;48.566;8.846;2022-07-22T10:40:31;26.90;99.90
29295;DHT22;16305;48.566;8.846;2022-07-22T10:45:31;26.60;99.90
29295;DHT22;16305;48.566;8.846;2022-07-22T10:47:59;26.60;99.90
29295;DHT22;16305;48.566;8.846;2022-07-22T10:53:04;27.20;99.90
29295;DHT22;16305;48.566;8.846;2022-07-22T10:55:29;27.40;99.90
29295;DHT22;16305;48.566;8.846;2022-07-22T10:57:55;27.60;99.90
29295;DHT22;16305;48.566;8.846;2022-07-22T11:00:21;27.80;99.90
29295;DHT22;16305;48.566;8.846;2022-07-22T11:02:46;27.80;99.90
29295;DHT22;16305;48.566;8.846;2022-07-22T11:05:13;27.90;99.90
29295;DHT22;16305;48.566;8.846;2022-07-22T11:07:46;28.00;99.90
29295;DHT22;16305;48.566;8.846;2022-07-22T11:10:13;27.50;99.90
29295;DHT22;16305;48.566;8.846;2022-07-22T11:12:38;27.60;99.90
29295;DHT22;16305;48.566;8.846;2022-07-22T11:15:05;27.70;99.90
29295;DHT22;16305;48.566;8.846;2022-07-22T11:17:35;27.90;99.90
29295;DHT22;16305;48.566;8.846;2022-07-22T11:20:03;28.30;99.90
29295;DHT22;16305;48.566;8.846;2022-07-22T11:22:29;28.60;99.90
29295;DHT22;16305;48.566;8.846;2022-07-22T11:24:56;28.80;99.90
29295;DHT22;16305;48.566;8.846;2022-07-22T11:27:21;28.70;99.90
29295;DHT22;16305;48.566;8.846;2022-07-22T11:29:51;28.40;99.90
29295;DHT22;16305;48.566;8.846;2022-07-22T11:32:19;28.50;99.90
29295;DHT22;16305;48.566;8.846;2022-07-22T11:34:45;28.60;99.90
29295;DHT22;16305;48.566;8.846;2022-07-22T11:37:20;28.70;99.90
29295;DHT22;16305;48.566;8.846;2022-07-22T11:39:48;28.80;99.90
29295;DHT22;16305;48.566;8.846;2022-07-22T11:42:13;28.80;99.90
29295;DHT22;16305;48.566;8.846;2022-07-22T11:44:40;28.70;99.90
29295;DHT22;16305;48.566;8.846;2022-07-22T11:47:07;28.90;99.90
29295;DHT22;16305;48.566;8.846;2022-07-22T11:49:34;29.00;99.90
29295;DHT22;16305;48.566;8.846;2022-07-22T11:52:02;29.30;99.90
29295;DHT22;16305;48.566;8.846;2022-07-22T11:54:28;29.60;99.90
29295;DHT22;16305;48.566;8.846;2022-07-22T11:56:53;29.80;99.90
29295;DHT22;16305;48.566;8.846;2022-07-22T11:59:19;29.90;99.90
29295;DHT22;16305;48.566;8.846;2022-07-22T12:01:46;29.80;99.90
29295;DHT22;16305;48.566;8.846;2022-07-22T12:04:22;29.90;99.90
29295;DHT22;16305;48.566;8.846;2022-07-22T12:06:48;30.00;99.90
29295;DHT22;16305;48.566;8.846;2022-07-22T12:11:42;30.20;99.90
29295;DHT22;16305;48.566;8.846;2022-07-22T12:14:16;30.20;99.90
29295;DHT22;16305;48.566;8.846;2022-07-22T12:16:53;30.10;99.90
29295;DHT22;16305;48.566;8.846;2022-07-22T12:19:19;30.40;99.90
29295;DHT22;16305;48.566;8.846;2022-07-22T12:24:35;30.40;99.90
29295;DHT22;16305;48.566;8.846;2022-07-22T12:27:12;30.60;99.90
29295;DHT22;16305;48.566;8.846;2022-07-22T12:32:08;31.00;99.90
29295;DHT22;16305;48.566;8.846;2022-07-22T12:37:13;31.10;99.90
29295;DHT22;16305;48.566;8.846;2022-07-22T12:39:39;31.10;99.90
29295;DHT22;16305;48.566;8.846;2022-07-22T12:42:18;31.20;99.90
29295;DHT22;16305;48.566;8.846;2022-07-22T12:44:51;31.20;99.90
29295;DHT22;16305;48.566;8.846;2022-07-22T12:47:17;31.20;99.90
29295;DHT22;16305;48.566;8.846;2022-07-22T12:50:27;31.40;99.90
29295;DHT22;16305;48.566;8.846;2022-07-22T12:53:16;31.60;99.90
29295;DHT22;16305;48.566;8.846;2022-07-22T12:55:44;31.60;99.90
29295;DHT22;16305;48.566;8.846;2022-07-22T12:58:10;31.90;99.90
29295;DHT22;16305;48.566;8.846;2022-07-22T13:00:42;31.80;99.90
29295;DHT22;16305;48.566;8.846;2022-07-22T13:03:07;32.00;99.90
29295;DHT22;16305;48.566;8.846;2022-07-22T13:05:34;32.20;99.90
29295;DHT22;16305;48.566;8.846;2022-07-22T13:08:01;32.20;99.90
29295;DHT22;16305;48.566;8.846;2022-07-22T13:10:27;31.70;99.90
29295;DHT22;16305;48.566;8.846;2022-07-22T13:12:53;31.40;99.90
29295;DHT22;16305;48.566;8.846;2022-07-22T13:15:20;31.80;99.90
29295;DHT22;16305;48.566;8.846;2022-07-22T13:17:46;32.20;99.90
29295;DHT22;16305;48.566;8.846;2022-07-22T13:20:14;32.30;99.90
29295;DHT22;16305;48.566;8.846;2022-07-22T13:22:42;32.60;99.90
29295;DHT22;16305;48.566;8.846;2022-07-22T13:25:08;33.00;99.90
29295;DHT22;16305;48.566;8.846;2022-07-22T13:27:35;33.10;99.90
29295;DHT22;16305;48.566;8.846;2022-07-22T13:30:00;32.90;99.90
29295;DHT22;16305;48.566;8.846;2022-07-22T13:32:26;33.00;99.90
29295;DHT22;16305;48.566;8.846;2022-07-22T13:34:52;33.30;99.90
29295;DHT22;16305;48.566;8.846;2022-07-22T13:37:17;33.40;99.90
29295;DHT22;16305;48.566;8.846;2022-07-22T13:39:43;33.30;99.90
29295;DHT22;16305;48.566;8.846;2022-07-22T13:42:12;33.70;99.90
29295;DHT22;16305;48.566;8.846;2022-07-22T13:44:38;34.00;99.90
29295;DHT22;16305;48.566;8.846;2022-07-22T13:47:04;34.20;99.90
29295;DHT22;16305;48.566;8.846;2022-07-22T13:49:30;34.30;99.90
29295;DHT22;16305;48.566;8.846;2022-07-22T13:51:55;33.90;99.90
29295;DHT22;16305;48.566;8.846;2022-07-22T13:54:21;33.40;99.90
29295;DHT22;16305;48.566;8.846;2022-07-22T13:56:47;33.40;99.90
29295;DHT22;16305;48.566;8.846;2022-07-22T13:59:14;33.90;99.90
29295;DHT22;16305;48.566;8.846;2022-07-22T14:01:40;34.40;99.90
29295;DHT22;16305;48.566;8.846;2022-07-22T14:04:06;34.40;99.90
29295;DHT22;16305;48.566;8.846;2022-07-22T14:06:33;34.60;99.90
29295;DHT22;16305;48.566;8.846;2022-07-22T14:08:59;34.90;99.90
29295;DHT22;16305;48.566;8.846;2022-07-22T14:11:24;35.00;99.90
29295;DHT22;16305;48.566;8.846;2022-07-22T14:13:50;35.30;99.90
29295;DHT22;16305;48.566;8.846;2022-07-22T14:16:16;35.40;99.90
29295;DHT22;16305;48.566;8.846;2022-07-22T14:19:14;35.30;99.90
29295;DHT22;16305;48.566;8.846;2022-07-22T14:21:42;35.40;99.90
29295;DHT22;16305;48.566;8.846;2022-07-22T14:24:09;35.70;99.90
29295;DHT22;16305;48.566;8.846;2022-07-22T14:26:35;36.00;99.90
29295;DHT22;16305;48.566;8.846;2022-07-22T14:29:01;35.50;99.90
29295;DHT22;16305;48.566;8.846;2022-07-22T14:31:28;35.30;99.90
29295;DHT22;16305;48.566;8.846;2022-07-22T14:33:54;35.20;99.90
29295;DHT22;16305;48.566;8.846;2022-07-22T14:36:20;35.60;99.90
29295;DHT22;16305;48.566;8.846;2022-07-22T14:38:45;35.50;99.90
29295;DHT22;16305;48.566;8.846;2022-07-22T14:41:11;35.10;99.90
29295;DHT22;16305;48.566;8.846;2022-07-22T14:43:37;35.80;99.90
29295;DHT22;16305;48.566;8.846;2022-07-22T14:46:03;36.70;99.90
29295;DHT22;16305;48.566;8.846;2022-07-22T14:48:30;37.30;99.90
29295;DHT22;16305;48.566;8.846;2022-07-22T14:50:56;37.60;99.90
29295;DHT22;16305;48.566;8.846;2022-07-22T14:53:22;37.70;99.90
29295;DHT22;16305;48.566;8.846;2022-07-22T14:55:48;37.30;99.90
29295;DHT22;16305;48.566;8.846;2022-07-22T14:58:14;37.40;99.90
29295;DHT22;16305;48.566;8.846;2022-07-22T15:00:40;37.50;99.90
29295;DHT22;16305;48.566;8.846;2022-07-22T15:03:06;37.50;99.90
29295;DHT22;16305;48.566;8.846;2022-07-22T15:05:31;37.60;99.90
29295;DHT22;16305;48.566;8.846;2022-07-22T15:07:57;36.70;99.90
29295;DHT22;16305;48.566;8.846;2022-07-22T15:10:23;36.80;99.90
29295;DHT22;16305;48.566;8.846;2022-07-22T15:12:48;37.00;99.90
29295;DHT22;16305;48.566;8.846;2022-07-22T15:15:14;37.30;99.90
29295;DHT22;16305;48.566;8.846;2022-07-22T15:17:39;37.50;99.90
29295;DHT22;16305;48.566;8.846;2022-07-22T15:20:06;37.40;99.90
29295;DHT22;16305;48.566;8.846;2022-07-22T15:22:33;37.60;99.90
29295;DHT22;16305;48.566;8.846;2022-07-22T15:24:59;37.50;99.90
29295;DHT22;16305;48.566;8.846;2022-07-22T15:27:24;38.00;99.90
29295;DHT22;16305;48.566;8.846;2022-07-22T15:29:50;38.00;99.90
29295;DHT22;16305;48.566;8.846;2022-07-22T15:32:16;38.30;99.90
29295;DHT22;16305;48.566;8.846;2022-07-22T15:34:42;38.30;99.90
29295;DHT22;16305;48.566;8.846;2022-07-22T15:37:08;38.10;99.90
29295;DHT22;16305;48.566;8.846;2022-07-22T15:39:34;37.80;99.90
29295;DHT22;16305;48.566;8.846;2022-07-22T15:42:00;37.70;99.90
29295;DHT22;16305;48.566;8.846;2022-07-22T15:44:26;37.70;99.90
29295;DHT22;16305;48.566;8.846;2022-07-22T15:46:51;37.50;99.90
29295;DHT22;16305;48.566;8.846;2022-07-22T15:49:17;37.10;99.50
29295;DHT22;16305;48.566;8.846;2022-07-22T15:51:42;37.30;99.90